CYDB

Burwash Airport

Burwash, , Canada
METAR CYDB 230700Z AUTO 30014KT 1 1/2SM -SN OVC020 M06/M06 A2965 RMK SLP097
Observed Flight Rules
Feb-23 @ 07:00 UTC (an hour ago) Instrument Flight Rules
Wind Visibility Clouds Conditions
300° at 14 knots 1 1/2 miles
  • Overcast at 2,000' AGL
  • Light Snow
Temperatures Readings
Current -6°C / 21°F
Dewpoint -6°C / 21°F
Humidity 100%
Altimeter 29.65" Hg
Pressure 1009.7 hPa
Elevation 801
METAR CYDB 230700Z AUTO 30014KT 1 1/2SM -SN OVC020 M06/M06 A2965 RMK SLP097
Observed Flight Rules
Feb-23 @ 07:00 UTC
(an hour ago)
IFR
Wind Visibility
300° at 14 knots 1 1/2 miles
Clouds
  • Overcast at 2,000' AGL
Conditions
  • Light Snow
Temperature Dewpoint
-6°C / 21°F -6°C / 21°F
Humidity Altimeter Pressure
100% 29.65" Hg 1009.7 hPa